Aérodrome :
LOGIN :

S'inscrire | Disclaimer

   EN    FR    IT 

 










Légende :    VFR   VFR Marginal   IFR   IFR Intensif   IFR Très Intensif
Visi : 
Plafond : 
>= 8 km
>= 3000ft
5 à 8 km
1000 à 3000 ft
1500m à 5 km
500 à 1000 ft
800 à 1500m
200 à 500 ft
< 800m
< 200 ft
Symboles :   Orages  Brouillard  Fortes neiges  Fortes précipitations  Vent > 20 kt
SIGMETs :   Divers  Orages  Givrage  Turbulence  Onde Orograph.  Cendres Volcan.






- Altitude de l'aérodrome : 29 ft
- Code IATA : SVG


ENZV - Sola

DERNIER METAR :
  • 231320Z 18010KT 9999 FEW017 SCT023 BKN040 12/08 Q1011 NOSIG

METARs EXPIRÉS :
  • 231250Z 19012KT 9999 SCT017 BKN043 12/09 Q1012 NOSIG
  • 231220Z 18011KT 9999 FEW020 BKN040 12/08 Q1012
  • 231150Z 17012KT 9999 SCT020 BKN040 12/08 Q1012 NOSIG
  • 231120Z 18011KT 9999 SCT018 BKN040 12/09 Q1012 NOSIG
  • 231050Z 18011KT 9999 FEW015 SCT025 BKN040 12/09 Q1012 NOSIG

TAF TAF ENZV
Valide du 23 à 12h jusqu'au 24 à 12h UTC


2312/2412 18012KT 9999 FEW018 BKN040
PROB40
TEMPO 2312/2404 BKN012
BECMG 2404/2406 4000 RA BKN010
TEMPO 2409/2412 2000 RADZ BR OVC004



MET'MAP, la Météo Aéronautique d'un coup d'oeil ! - Copyright ORBIFLY Décembre 2007 - Disclaimer

ORBIFLY MET'MAP TEAM :

Programmation & Développement : Alexandra Zaïnal
Conception & Développement : Baudouin d'Aumeries
Co-Programmation & Développement : Marc-Olivier Méhu
Soutien technique & logistique : Manuel Goepfert

Contact : metmap@orbifly.com




SOURCES & CREDITS :

   NOAA